Time;durP1;ratioP1;P1;durP2;ratioP2;P2;SDS_P1;SDS_P2;PMS_P1;PMS_P2;Temp;Humidity;BMP_temperature;BMP_pressure;BME280_temperature;BME280_humidity;BME280_pressure;Samples;Min_cycle;Max_cycle;Signal;HPM_P1;HPM_P2
2022/03/09 00:02:19;;;;;;;18.93;12.43;;;0.20;99.90;;;;;;5115493;28;20177;-62
2022/03/09 00:04:45;;;;;;;15.87;12.50;;;0.10;99.90;;;;;;5114288;28;20218;-62
2022/03/09 00:07:11;;;;;;;17.53;12.60;;;0.10;99.90;;;;;;5112736;28;20705;-62
2022/03/09 00:09:36;;;;;;;18.83;12.90;;;0.10;99.90;;;;;;5114224;28;20256;-62
2022/03/09 00:12:03;;;;;;;19.20;13.23;;;0.10;99.90;;;;;;5113882;28;20651;-62
2022/03/09 00:14:29;;;;;;;18.07;13.60;;;0.00;99.90;;;;;;5114067;28;20232;-62
2022/03/09 00:16:54;;;;;;;18.07;13.47;;;0.00;99.90;;;;;;5113833;28;20259;-62
2022/03/09 00:19:20;;;;;;;18.80;13.37;;;0.00;99.90;;;;;;5114146;28;20288;-63
2022/03/09 00:21:46;;;;;;;17.93;13.70;;;-0.10;99.90;;;;;;5112527;28;20188;-62
2022/03/09 00:24:14;;;;;;;16.17;12.97;;;0.00;99.90;;;;;;5113682;28;20169;-62
2022/03/09 00:26:40;;;;;;;23.60;13.23;;;-0.10;99.90;;;;;;5113771;28;20164;-62
2022/03/09 00:29:06;;;;;;;20.10;12.40;;;-0.20;99.90;;;;;;5113773;28;20168;-62
2022/03/09 00:31:32;;;;;;;18.23;12.30;;;-0.20;99.90;;;;;;5113812;28;20648;-62
2022/03/09 00:33:58;;;;;;;21.40;13.40;;;-0.20;99.90;;;;;;5112566;28;20259;-62
2022/03/09 00:36:24;;;;;;;16.40;11.97;;;-0.20;99.90;;;;;;5113636;28;20185;-62
2022/03/09 00:38:49;;;;;;;18.87;12.90;;;-0.20;99.90;;;;;;5113740;28;20665;-62
2022/03/09 00:41:15;;;;;;;19.03;12.33;;;-0.20;99.90;;;;;;5113481;28;20201;-62
2022/03/09 00:43:42;;;;;;;21.87;13.40;;;-0.30;99.90;;;;;;5113814;28;20248;-62
2022/03/09 00:46:08;;;;;;;18.27;12.77;;;-0.20;99.90;;;;;;5114021;28;20195;-63
2022/03/09 00:48:33;;;;;;;19.63;12.97;;;-0.30;99.90;;;;;;5113754;28;20540;-62
2022/03/09 00:50:59;;;;;;;18.60;12.23;;;-0.30;99.90;;;;;;5114582;28;20206;-62
2022/03/09 00:53:25;;;;;;;18.53;13.03;;;-0.30;99.90;;;;;;5117821;28;20176;-62
2022/03/09 00:55:51;;;;;;;17.10;13.43;;;-0.30;99.90;;;;;;5117588;28;20192;-62
2022/03/09 00:58:16;;;;;;;18.03;13.20;;;-0.40;99.90;;;;;;5117494;28;20338;-62
2022/03/09 01:00:42;;;;;;;19.77;13.27;;;-0.40;99.90;;;;;;5116158;28;20223;-62
2022/03/09 01:03:08;;;;;;;14.37;12.83;;;-0.40;99.90;;;;;;5117585;28;20189;-62
2022/03/09 01:05:34;;;;;;;18.10;12.87;;;-0.40;99.90;;;;;;5117278;28;20188;-62
2022/03/09 01:07:59;;;;;;;17.60;12.43;;;-0.40;99.90;;;;;;5117179;28;20172;-62
2022/03/09 01:10:25;;;;;;;19.93;13.00;;;-0.40;99.90;;;;;;5117356;28;20176;-62
2022/03/09 01:12:51;;;;;;;22.00;14.60;;;-0.40;99.90;;;;;;5117382;28;20220;-63
2022/03/09 01:15:17;;;;;;;23.73;13.87;;;-0.50;99.90;;;;;;5117011;28;20199;-62
2022/03/09 01:17:43;;;;;;;20.50;13.53;;;-0.60;99.90;;;;;;5117017;28;20648;-62
2022/03/09 01:20:09;;;;;;;20.07;13.33;;;-0.70;99.90;;;;;;5117116;28;20223;-63
2022/03/09 01:22:35;;;;;;;18.70;13.30;;;-0.70;1.00;;;;;;5116896;28;20165;-62
2022/03/09 01:25:01;;;;;;;18.83;13.83;;;-0.60;99.90;;;;;;5116721;28;20214;-62
2022/03/09 01:27:26;;;;;;;16.53;12.60;;;-0.60;99.90;;;;;;5117094;28;20214;-62
2022/03/09 01:29:52;;;;;;;20.40;13.50;;;-0.70;99.90;;;;;;5116704;27;20203;-62
2022/03/09 01:32:21;;;;;;;19.40;13.27;;;-0.70;99.90;;;;;;5116593;28;20184;-62
2022/03/09 01:34:48;;;;;;;19.43;13.77;;;-0.80;99.90;;;;;;5116634;28;20621;-62
2022/03/09 01:37:14;;;;;;;16.27;12.87;;;-0.80;1.00;;;;;;5116621;28;20653;-63
2022/03/09 01:39:39;;;;;;;18.63;13.73;;;-0.80;99.90;;;;;;5116461;28;20211;-63
2022/03/09 01:42:06;;;;;;;16.80;13.97;;;-0.80;1.00;;;;;;5116743;28;20173;-63
2022/03/09 01:44:31;;;;;;;19.20;12.90;;;-0.70;1.00;;;;;;5116684;28;20543;-62
2022/03/09 01:46:57;;;;;;;23.10;13.13;;;-0.70;1.00;;;;;;5116964;28;20228;-62
2022/03/09 01:49:24;;;;;;;19.87;13.27;;;-0.80;99.90;;;;;;5116345;28;20260;-62
2022/03/09 01:51:52;;;;;;;22.27;14.57;;;-0.90;99.90;;;;;;5115031;28;20678;-62
2022/03/09 01:54:19;;;;;;;20.20;12.90;;;-0.90;99.90;;;;;;5116137;28;20207;-63
2022/03/09 01:56:45;;;;;;;18.93;14.00;;;-0.90;1.00;;;;;;5116352;28;20519;-62
2022/03/09 01:59:14;;;;;;;23.70;14.77;;;-0.90;99.90;;;;;;5116161;28;20191;-62
2022/03/09 02:01:41;;;;;;;19.60;13.73;;;-0.80;99.90;;;;;;5116061;28;20178;-63
2022/03/09 02:04:07;;;;;;;18.97;14.27;;;-0.80;99.90;;;;;;5115347;28;20161;-63
2022/03/09 02:06:34;;;;;;;16.33;12.67;;;-0.90;99.90;;;;;;5116079;28;20168;-62
2022/03/09 02:11:47;;;;;;;15.63;13.13;;;-1.10;99.90;;;;;;5116470;28;20541;-62
2022/03/09 02:14:28;;;;;;;22.17;14.20;;;-1.10;99.90;;;;;;5115774;27;20255;-63
2022/03/09 02:16:58;;;;;;;16.50;13.00;;;-1.10;99.90;;;;;;5115893;28;20172;-63
2022/03/09 02:19:24;;;;;;;21.10;13.60;;;-1.00;99.90;;;;;;5115756;28;20195;-63
2022/03/09 02:21:55;;;;;;;16.20;13.13;;;-1.00;99.90;;;;;;5115971;28;20177;-62
2022/03/09 02:24:22;;;;;;;22.07;14.27;;;-1.00;99.90;;;;;;5115922;27;20611;-63
2022/03/09 02:26:49;;;;;;;19.77;13.53;;;-1.00;99.90;;;;;;5115547;28;20172;-62
2022/03/09 02:29:15;;;;;;;19.53;13.07;;;-1.00;99.90;;;;;;5114311;28;20200;-62
2022/03/09 02:31:41;;;;;;;17.57;13.43;;;-1.00;99.90;;;;;;5115389;28;20207;-63
2022/03/09 02:34:06;;;;;;;19.13;14.17;;;-1.00;99.90;;;;;;5115527;28;20240;-62
2022/03/09 02:36:32;;;;;;;18.70;13.00;;;-1.10;99.90;;;;;;5115712;28;20656;-63
2022/03/09 02:38:58;;;;;;;18.17;13.53;;;-1.10;99.90;;;;;;5115614;28;20531;-62
2022/03/09 02:41:28;;;;;;;21.87;14.47;;;-1.10;99.90;;;;;;5115363;28;20176;-62
2022/03/09 02:43:54;;;;;;;22.17;12.77;;;-1.20;99.90;;;;;;5115353;28;20168;-62
2022/03/09 02:46:20;;;;;;;21.23;13.73;;;-1.30;99.90;;;;;;5115245;28;20211;-62
2022/03/09 02:48:49;;;;;;;20.50;13.67;;;-1.20;99.90;;;;;;5115177;28;20648;-61
2022/03/09 02:51:15;;;;;;;18.60;13.80;;;-1.20;99.90;;;;;;5115112;28;20180;-62
2022/03/09 02:53:41;;;;;;;17.17;13.50;;;-1.20;99.90;;;;;;5115193;28;20164;-62
2022/03/09 02:56:06;;;;;;;22.83;15.07;;;-1.20;99.90;;;;;;5113722;28;20306;-62
2022/03/09 02:58:32;;;;;;;20.20;14.13;;;-1.20;99.90;;;;;;5115131;28;20637;-63
2022/03/09 03:00:58;;;;;;;19.97;14.27;;;-1.30;99.90;;;;;;5115274;28;20229;-62
2022/03/09 03:03:23;;;;;;;18.80;14.40;;;-1.40;99.90;;;;;;5115183;28;20293;-62
2022/03/09 03:05:49;;;;;;;21.97;14.63;;;-1.40;99.90;;;;;;5114868;28;20188;-62
2022/03/09 03:08:15;;;;;;;18.13;14.47;;;-1.60;99.90;;;;;;5113701;28;20172;-61
2022/03/09 03:10:41;;;;;;;16.83;13.47;;;-1.70;99.90;;;;;;5115025;28;20589;-61
2022/03/09 03:13:07;;;;;;;17.67;14.17;;;-1.60;99.90;;;;;;5114937;28;20641;-62
2022/03/09 03:15:33;;;;;;;20.23;13.63;;;-1.60;99.90;;;;;;5114599;28;20188;-62
2022/03/09 03:17:59;;;;;;;17.47;13.50;;;-1.50;99.90;;;;;;5113495;28;20204;-62
2022/03/09 03:20:25;;;;;;;19.27;13.73;;;-1.60;99.90;;;;;;5113223;28;20283;-62
2022/03/09 03:22:51;;;;;;;17.67;13.97;;;-1.50;99.90;;;;;;5114656;28;20184;-62
2022/03/09 03:25:16;;;;;;;18.80;14.00;;;-1.40;99.90;;;;;;5114701;28;20192;-62
2022/03/09 03:27:42;;;;;;;16.73;13.80;;;-1.50;99.90;;;;;;5114727;28;20169;-64
2022/03/09 03:30:08;;;;;;;18.23;13.47;;;-1.60;99.90;;;;;;5114820;28;20176;-63
2022/03/09 03:32:34;;;;;;;19.07;14.40;;;-1.70;99.90;;;;;;5114271;28;20672;-62
2022/03/09 03:34:59;;;;;;;19.83;13.10;;;-1.80;99.90;;;;;;5113359;28;20192;-62
2022/03/09 03:37:25;;;;;;;18.20;12.93;;;-1.70;99.90;;;;;;5113038;28;20177;-61
2022/03/09 03:39:51;;;;;;;17.97;14.03;;;-1.70;99.90;;;;;;5114804;28;20219;-63
2022/03/09 03:42:17;;;;;;;20.03;14.07;;;-1.80;99.90;;;;;;5114525;28;20172;-63
2022/03/09 03:44:42;;;;;;;21.17;14.27;;;-1.80;99.90;;;;;;5114432;28;20214;-62
2022/03/09 03:47:08;;;;;;;19.27;14.57;;;-1.80;99.90;;;;;;5114426;28;20190;-61
2022/03/09 03:49:34;;;;;;;18.33;14.47;;;-1.80;99.90;;;;;;5114131;28;20168;-62
2022/03/09 03:51:59;;;;;;;22.03;13.20;;;-1.80;99.90;;;;;;5112837;28;20184;-62
2022/03/09 03:54:25;;;;;;;22.30;15.00;;;-1.80;99.90;;;;;;5114008;28;20260;-62
2022/03/09 03:56:51;;;;;;;19.63;14.67;;;-1.90;99.90;;;;;;5114271;28;20176;-62
2022/03/09 03:59:16;;;;;;;18.63;14.10;;;-1.80;99.90;;;;;;5114002;28;20202;-62
2022/03/09 04:01:42;;;;;;;16.20;14.07;;;-1.70;1.00;;;;;;5114268;28;20169;-62
2022/03/09 04:04:08;;;;;;;17.97;14.30;;;-1.70;99.90;;;;;;5114476;28;20171;-62
2022/03/09 04:06:33;;;;;;;17.80;13.73;;;-1.80;99.90;;;;;;5114062;28;20583;-63
2022/03/09 04:08:59;;;;;;;18.83;13.80;;;-1.90;99.90;;;;;;5113864;28;20240;-62
2022/03/09 04:11:25;;;;;;;17.03;14.07;;;-1.90;99.90;;;;;;5114514;28;20177;-61
2022/03/09 04:13:50;;;;;;;18.23;14.07;;;-2.00;1.00;;;;;;5114376;28;20172;-63
2022/03/09 04:16:16;;;;;;;22.17;13.93;;;-2.00;99.90;;;;;;5113010;28;20196;-62
2022/03/09 04:18:42;;;;;;;19.13;14.97;;;-2.00;1.00;;;;;;5114696;28;20298;-62
2022/03/09 04:21:07;;;;;;;23.77;13.60;;;-1.90;1.00;;;;;;5114500;28;20226;-62
2022/03/09 04:23:33;;;;;;;19.20;13.90;;;-1.90;1.00;;;;;;5114124;28;20602;-62
2022/03/09 04:26:00;;;;;;;21.23;14.27;;;-2.10;99.90;;;;;;5114837;28;20267;-62
2022/03/09 04:28:26;;;;;;;17.03;14.60;;;-2.00;1.00;;;;;;5116809;28;20202;-62
2022/03/09 04:30:52;;;;;;;15.23;12.70;;;-2.10;1.00;;;;;;5117998;28;20180;-62
2022/03/09 04:33:17;;;;;;;17.43;13.80;;;-2.10;1.00;;;;;;5117817;28;20274;-61
2022/03/09 04:35:43;;;;;;;20.13;13.90;;;-2.10;1.00;;;;;;5118023;28;20196;-62
2022/03/09 04:38:09;;;;;;;17.33;13.63;;;-2.20;1.00;;;;;;5117900;28;20251;-62
2022/03/09 04:40:34;;;;;;;17.07;14.37;;;-2.20;1.00;;;;;;5117791;28;20200;-62
2022/03/09 04:43:00;;;;;;;18.50;14.07;;;-2.30;99.90;;;;;;5117997;28;20651;-63
2022/03/09 04:45:26;;;;;;;20.43;15.07;;;-2.30;1.00;;;;;;5117677;28;20691;-62
2022/03/09 04:47:51;;;;;;;18.60;14.07;;;-2.20;92.60;;;;;;5116583;28;20169;-62
2022/03/09 04:50:17;;;;;;;21.27;13.97;;;-2.20;1.00;;;;;;5117897;28;20176;-62
2022/03/09 04:52:43;;;;;;;16.00;13.53;;;-2.30;1.00;;;;;;5117671;28;20187;-65
2022/03/09 04:55:09;;;;;;;21.20;14.33;;;-2.30;99.90;;;;;;5117670;28;20213;-65
2022/03/09 04:57:38;;;;;;;21.53;15.80;;;-2.20;1.00;;;;;;5117614;28;20180;-65
2022/03/09 05:00:06;;;;;;;17.23;13.90;;;-2.30;99.90;;;;;;5117496;28;20279;-64
2022/03/09 05:02:32;;;;;;;18.90;13.97;;;-2.30;99.90;;;;;;5117395;28;20261;-63
2022/03/09 05:04:57;;;;;;;17.43;13.80;;;-2.30;99.90;;;;;;5117181;28;20676;-63
2022/03/09 05:07:23;;;;;;;17.47;14.47;;;-2.40;99.90;;;;;;5117338;28;20251;-64
2022/03/09 05:09:49;;;;;;;17.77;14.20;;;-2.50;1.00;;;;;;5115865;28;20180;-63
2022/03/09 05:12:14;;;;;;;18.77;14.03;;;-2.40;99.90;;;;;;5117287;28;20584;-63
2022/03/09 05:14:40;;;;;;;23.90;14.60;;;-2.40;1.00;;;;;;5117199;28;20192;-65
2022/03/09 05:17:05;;;;;;;14.77;12.70;;;-2.40;1.00;;;;;;5117382;28;20173;-63
2022/03/09 05:19:31;;;;;;;19.93;14.07;;;-2.30;38.20;;;;;;5117130;28;20203;-63
2022/03/09 05:21:57;;;;;;;17.10;13.97;;;-2.30;99.90;;;;;;5116939;28;20200;-62
2022/03/09 05:24:23;;;;;;;18.70;14.53;;;-2.30;99.90;;;;;;5117033;28;20241;-62
2022/03/09 05:26:49;;;;;;;17.40;14.73;;;-2.30;99.90;;;;;;5116982;28;20284;-61
2022/03/09 05:29:15;;;;;;;17.63;14.67;;;-2.40;1.00;;;;;;5116787;28;20188;-62
2022/03/09 05:31:41;;;;;;;18.53;14.97;;;-2.40;99.90;;;;;;5116582;28;20188;-62
2022/03/09 05:34:07;;;;;;;22.93;13.97;;;-2.40;99.90;;;;;;5115322;28;20727;-62
2022/03/09 05:36:33;;;;;;;18.83;14.07;;;-2.40;1.00;;;;;;5116537;28;20200;-62
2022/03/09 05:38:59;;;;;;;17.93;13.63;;;-2.40;1.00;;;;;;5116642;28;20200;-62
2022/03/09 05:41:24;;;;;;;18.63;13.93;;;-2.40;1.00;;;;;;5116356;28;20249;-62
2022/03/09 05:43:50;;;;;;;17.03;14.50;;;-2.50;99.90;;;;;;5116685;28;20175;-62
2022/03/09 05:46:16;;;;;;;20.17;13.93;;;-2.50;29.80;;;;;;5116350;28;20187;-63
2022/03/09 05:48:42;;;;;;;18.87;14.70;;;-2.40;1.00;;;;;;5116253;28;20176;-64
2022/03/09 05:51:08;;;;;;;18.83;14.73;;;-2.50;99.90;;;;;;5116589;28;20164;-62
2022/03/09 05:53:34;;;;;;;20.37;13.70;;;-2.50;99.90;;;;;;5116208;28;20172;-62
2022/03/09 05:56:00;;;;;;;15.90;13.47;;;-2.50;99.90;;;;;;5116136;28;20216;-62
2022/03/09 05:58:25;;;;;;;17.00;14.43;;;-2.60;99.90;;;;;;5116367;28;20200;-62
2022/03/09 06:00:51;;;;;;;20.03;14.53;;;-2.60;99.90;;;;;;5116000;28;20539;-62
2022/03/09 06:03:17;;;;;;;18.53;14.57;;;-2.60;99.90;;;;;;5116066;28;20176;-63
2022/03/09 06:05:42;;;;;;;18.43;16.17;;;-2.60;3.40;;;;;;5116089;28;20184;-61
2022/03/09 06:08:08;;;;;;;22.00;15.50;;;-2.60;1.00;;;;;;5115947;28;20223;-62
2022/03/09 06:10:34;;;;;;;19.97;15.03;;;-2.60;99.90;;;;;;5115973;28;20173;-63
2022/03/09 06:12:59;;;;;;;19.93;14.90;;;-2.60;99.90;;;;;;5115880;28;20211;-61
2022/03/09 06:15:25;;;;;;;21.73;15.73;;;-2.60;1.00;;;;;;5115787;28;20268;-62
2022/03/09 06:17:51;;;;;;;21.37;15.10;;;-2.60;99.90;;;;;;5115732;28;20608;-62
2022/03/09 06:20:19;;;;;;;18.70;15.07;;;-2.50;1.00;;;;;;5116172;28;20197;-62
2022/03/09 06:22:45;;;;;;;17.03;15.27;;;-2.50;99.90;;;;;;5115877;28;20259;-62
2022/03/09 06:25:14;;;;;;;19.13;14.13;;;-2.30;99.90;;;;;;5115723;28;20242;-63
2022/03/09 06:27:51;;;;;;;19.97;15.13;;;-2.30;99.90;;;;;;5114378;28;20606;-62
2022/03/09 06:30:17;;;;;;;18.50;14.03;;;-2.20;1.00;;;;;;5115725;28;20156;-62
2022/03/09 06:32:44;;;;;;;14.80;13.10;;;-2.20;1.00;;;;;;5114023;28;20230;-62
2022/03/09 06:35:11;;;;;;;16.83;14.27;;;-2.10;99.90;;;;;;5115282;27;20192;-62
2022/03/09 06:37:37;;;;;;;20.13;14.00;;;-2.10;99.90;;;;;;5115292;28;20179;-63
2022/03/09 06:40:05;;;;;;;19.00;14.20;;;-2.10;1.00;;;;;;5115338;28;20204;-62
2022/03/09 06:42:31;;;;;;;18.80;14.37;;;-2.20;1.00;;;;;;5114014;28;20172;-62
2022/03/09 06:44:58;;;;;;;20.80;14.97;;;-2.10;1.00;;;;;;5115437;28;20189;-61
2022/03/09 06:47:24;;;;;;;21.77;16.83;;;-2.10;99.90;;;;;;5115505;28;20165;-61
2022/03/09 06:49:50;;;;;;;18.73;15.13;;;-2.00;99.90;;;;;;5114604;28;20641;-61
2022/03/09 06:52:16;;;;;;;18.07;14.73;;;-1.90;99.90;;;;;;5115075;28;20202;-62
2022/03/09 06:54:42;;;;;;;21.30;16.00;;;-1.70;1.00;;;;;;5114994;28;20200;-62
2022/03/09 06:57:08;;;;;;;17.17;14.40;;;-1.60;1.00;;;;;;5114895;28;20181;-62
2022/03/09 06:59:34;;;;;;;19.57;15.23;;;-1.60;99.90;;;;;;5115059;28;20202;-62
2022/03/09 07:02:00;;;;;;;19.13;14.20;;;-1.50;1.00;;;;;;5115092;28;20164;-61
2022/03/09 07:04:25;;;;;;;21.17;14.80;;;-1.40;99.90;;;;;;5113469;28;20222;-62
2022/03/09 07:06:51;;;;;;;19.57;14.43;;;-1.30;1.00;;;;;;5115159;28;20171;-61
2022/03/09 07:09:17;;;;;;;20.23;14.33;;;-1.20;99.90;;;;;;5114894;28;20187;-61
2022/03/09 07:11:44;;;;;;;17.77;14.10;;;-1.00;99.90;;;;;;5114680;28;20164;-62
2022/03/09 07:14:11;;;;;;;17.83;14.17;;;-0.90;1.00;;;;;;5113243;28;20217;-61
2022/03/09 07:16:37;;;;;;;18.47;14.37;;;-0.90;99.90;;;;;;5114556;28;20252;-62
2022/03/09 07:19:03;;;;;;;16.17;13.50;;;-0.70;99.90;;;;;;5114891;28;20177;-62
2022/03/09 07:21:29;;;;;;;15.77;12.93;;;-0.60;99.90;;;;;;5114667;28;20197;-62
2022/03/09 07:23:55;;;;;;;16.10;12.87;;;-0.40;99.90;;;;;;5114687;28;20524;-62
2022/03/09 07:26:20;;;;;;;16.67;13.57;;;-0.30;1.00;;;;;;5114318;28;20594;-62
2022/03/09 07:28:46;;;;;;;15.33;13.10;;;-0.20;1.00;;;;;;5114896;28;20183;-62
2022/03/09 07:31:12;;;;;;;18.63;13.43;;;0.00;1.00;;;;;;5112860;28;20191;-62
2022/03/09 07:33:38;;;;;;;21.00;14.97;;;0.20;1.00;;;;;;5114559;28;20173;-62
2022/03/09 07:36:04;;;;;;;21.67;14.27;;;0.40;99.90;;;;;;5114777;28;20192;-61
2022/03/09 07:38:30;;;;;;;16.43;13.93;;;0.50;1.00;;;;;;5114137;28;20197;-61
2022/03/09 07:40:56;;;;;;;18.93;14.57;;;0.70;1.00;;;;;;5114426;28;20199;-62
2022/03/09 07:43:22;;;;;;;17.13;13.50;;;0.80;1.00;;;;;;5112808;28;20177;-63
2022/03/09 07:45:48;;;;;;;16.33;13.43;;;1.10;99.90;;;;;;5112787;28;20196;-62
2022/03/09 07:48:14;;;;;;;21.53;14.67;;;1.30;3.30;;;;;;5114357;28;20176;-62
2022/03/09 07:50:40;;;;;;;19.97;14.47;;;1.50;1.00;;;;;;5114056;28;20649;-61
2022/03/09 07:53:07;;;;;;;21.23;15.50;;;1.80;1.00;;;;;;5114018;28;20171;-62
2022/03/09 07:55:33;;;;;;;21.93;13.70;;;2.00;99.90;;;;;;5113859;28;20218;-62
2022/03/09 07:57:59;;;;;;;14.83;12.73;;;2.30;99.90;;;;;;5113871;28;20184;-62
2022/03/09 08:00:24;;;;;;;15.67;13.60;;;2.70;99.90;;;;;;5113353;28;20197;-62
2022/03/09 08:02:50;;;;;;;19.53;12.63;;;2.90;99.90;;;;;;5114266;28;20183;-62
2022/03/09 08:05:16;;;;;;;20.33;14.63;;;3.10;92.60;;;;;;5113818;28;20211;-62
2022/03/09 08:07:43;;;;;;;14.60;11.87;;;3.50;94.40;;;;;;5114262;28;20165;-62
2022/03/09 08:10:09;;;;;;;14.83;12.40;;;3.90;66.70;;;;;;5113916;28;20168;-62
2022/03/09 08:12:35;;;;;;;16.57;12.27;;;4.10;35.00;;;;;;5114635;28;20572;-62
2022/03/09 08:15:02;;;;;;;13.00;10.80;;;4.30;23.10;;;;;;5113928;28;20735;-61
2022/03/09 08:17:28;;;;;;;14.13;11.03;;;4.50;6.20;;;;;;5114633;28;20508;-62
2022/03/09 08:19:54;;;;;;;14.27;11.17;;;4.80;8.00;;;;;;5113635;28;20199;-62
2022/03/09 08:22:21;;;;;;;13.60;11.03;;;5.00;1.30;;;;;;5113861;28;20340;-62
2022/03/09 08:24:47;;;;;;;14.27;10.40;;;5.30;1.00;;;;;;5113676;28;20285;-62
2022/03/09 08:27:13;;;;;;;11.50;9.97;;;6.40;1.00;;;;;;5113792;28;20173;-63
2022/03/09 08:29:38;;;;;;;12.33;9.60;;;8.20;1.00;;;;;;5113877;28;20179;-60
2022/03/09 08:32:04;;;;;;;9.88;8.60;;;10.50;1.00;;;;;;5113390;28;20191;-61
2022/03/09 08:34:30;;;;;;;11.38;8.57;;;12.30;1.00;;;;;;5113716;28;20272;-61
2022/03/09 08:36:56;;;;;;;12.05;8.75;;;13.70;1.00;;;;;;5113833;28;20204;-61
2022/03/09 08:39:21;;;;;;;10.20;8.55;;;14.90;1.00;;;;;;5113462;28;20172;-62
2022/03/09 08:41:47;;;;;;;9.57;7.43;;;16.00;1.00;;;;;;5113511;28;20176;-61
2022/03/09 08:44:13;;;;;;;10.15;7.55;;;16.90;1.00;;;;;;5113504;28;20203;-61
2022/03/09 08:46:38;;;;;;;9.23;7.18;;;16.50;1.00;;;;;;5113535;28;20546;-61
2022/03/09 08:49:04;;;;;;;11.38;7.45;;;16.80;1.00;;;;;;5112193;28;20173;-61
2022/03/09 08:51:30;;;;;;;10.45;7.63;;;17.20;1.00;;;;;;5112119;28;20176;-60
2022/03/09 08:53:56;;;;;;;11.55;7.18;;;17.10;1.00;;;;;;5113663;28;20176;-61
2022/03/09 08:56:21;;;;;;;10.60;6.93;;;17.60;1.00;;;;;;5113316;28;20193;-61
2022/03/09 08:58:47;;;;;;;8.68;6.72;;;17.60;1.00;;;;;;5113364;28;20703;-61
2022/03/09 09:01:13;;;;;;;8.15;7.13;;;17.10;1.00;;;;;;5113274;28;20207;-60
2022/03/09 09:03:39;;;;;;;9.85;6.82;;;17.20;1.00;;;;;;5113599;28;20630;-61
2022/03/09 09:06:05;;;;;;;8.85;6.53;;;17.30;1.00;;;;;;5113557;28;20276;-61
2022/03/09 09:08:31;;;;;;;10.43;6.93;;;17.30;1.00;;;;;;5114875;28;20172;-61
2022/03/09 09:10:56;;;;;;;10.07;7.75;;;16.00;1.00;;;;;;5113816;28;20225;-61
2022/03/09 09:13:22;;;;;;;9.30;7.57;;;15.00;1.00;;;;;;5116627;28;20632;-61
2022/03/09 09:15:49;;;;;;;10.90;7.63;;;14.70;1.00;;;;;;5116798;28;20192;-60
2022/03/09 09:18:14;;;;;;;8.88;7.68;;;13.80;1.00;;;;;;5116941;28;20251;-60
2022/03/09 09:20:40;;;;;;;10.32;7.97;;;13.00;1.00;;;;;;5116941;28;20280;-60
2022/03/09 09:23:06;;;;;;;10.40;8.80;;;13.10;1.00;;;;;;5116811;28;20180;-61
2022/03/09 09:25:32;;;;;;;11.55;7.72;;;13.20;1.00;;;;;;5116870;28;20196;-60
2022/03/09 09:27:58;;;;;;;8.80;7.65;;;13.20;1.00;;;;;;5116743;28;20191;-60
2022/03/09 09:30:26;;;;;;;13.10;8.23;;;12.50;1.00;;;;;;5116740;28;20169;-60
2022/03/09 09:32:52;;;;;;;8.88;7.35;;;12.20;1.00;;;;;;5116594;28;20221;-61
2022/03/09 09:35:19;;;;;;;11.88;8.05;;;12.10;1.00;;;;;;5116590;28;20303;-61
2022/03/09 09:37:45;;;;;;;9.00;7.68;;;11.70;1.00;;;;;;5116821;28;20184;-60
2022/03/09 09:40:13;;;;;;;8.52;7.57;;;11.60;1.00;;;;;;5116648;28;20235;-61
2022/03/09 09:42:39;;;;;;;9.93;7.78;;;11.40;1.00;;;;;;5116720;28;20168;-61
2022/03/09 09:45:05;;;;;;;8.65;7.43;;;11.30;1.00;;;;;;5116523;28;20235;-61
2022/03/09 09:47:32;;;;;;;9.05;8.10;;;11.20;1.00;;;;;;5116876;28;20175;-61
2022/03/09 09:49:58;;;;;;;9.25;8.35;;;11.20;1.00;;;;;;5116245;28;20555;-60
2022/03/09 09:52:26;;;;;;;12.35;7.63;;;11.30;1.00;;;;;;5115034;28;20275;-62
2022/03/09 09:54:55;;;;;;;10.20;8.10;;;11.20;1.00;;;;;;5116319;28;20199;-63
2022/03/09 09:57:22;;;;;;;13.03;8.83;;;11.20;1.00;;;;;;5116464;28;20172;-63
2022/03/09 09:59:51;;;;;;;13.10;7.87;;;11.00;1.00;;;;;;5116020;28;20200;-63
2022/03/09 10:02:17;;;;;;;9.40;7.67;;;10.90;1.00;;;;;;5116448;28;20678;-63
2022/03/09 10:04:43;;;;;;;14.45;8.68;;;10.80;1.00;;;;;;5116385;28;20267;-61
2022/03/09 10:07:09;;;;;;;10.13;7.57;;;10.90;1.00;;;;;;5116385;28;20259;-63
2022/03/09 10:09:40;;;;;;;8.90;7.60;;;11.10;1.00;;;;;;5116527;28;20252;-60
2022/03/09 10:12:07;;;;;;;10.73;8.20;;;11.20;1.00;;;;;;5114802;28;20161;-60
2022/03/09 10:14:48;;;;;;;10.20;7.50;;;11.20;1.00;;;;;;5115926;28;20188;-60
2022/03/09 10:17:19;;;;;;;10.23;8.40;;;11.40;1.00;;;;;;5115796;28;20259;-60
2022/03/09 10:19:50;;;;;;;10.25;8.43;;;11.30;1.00;;;;;;5115862;28;20665;-62
2022/03/09 10:22:26;;;;;;;10.82;7.57;;;11.40;1.00;;;;;;5116028;28;20159;-60
2022/03/09 10:24:53;;;;;;;10.60;7.73;;;11.50;1.00;;;;;;5114773;28;20191;-60
2022/03/09 10:27:46;;;;;;;10.95;7.45;;;11.50;1.00;;;;;;5115563;28;20171;-60
2022/03/09 10:30:20;;;;;;;8.67;7.27;;;11.60;1.00;;;;;;5115516;28;20210;-60
2022/03/09 10:32:52;;;;;;;10.93;7.60;;;11.70;1.00;;;;;;5115435;28;20555;-60
2022/03/09 10:35:42;;;;;;;12.65;8.07;;;11.80;1.00;;;;;;5115366;28;20232;-60
2022/03/09 10:38:15;;;;;;;12.40;7.57;;;11.90;1.00;;;;;;5115910;28;20168;-60
2022/03/09 10:40:45;;;;;;;10.15;7.15;;;11.80;1.00;;;;;;5115512;28;20561;-61
2022/03/09 10:43:18;;;;;;;9.00;7.67;;;11.80;1.00;;;;;;5114229;28;20164;-60
2022/03/09 10:46:10;;;;;;;12.43;7.70;;;12.00;1.00;;;;;;5115277;28;20195;-61
2022/03/09 10:48:57;;;;;;;8.32;7.43;;;12.00;1.00;;;;;;5115204;28;20566;-61
2022/03/09 10:51:44;;;;;;;8.68;7.00;;;12.20;1.00;;;;;;5115440;28;20218;-62
2022/03/09 10:54:27;;;;;;;8.90;7.38;;;12.30;1.00;;;;;;5115032;28;20196;-61
2022/03/09 10:57:13;;;;;;;9.15;7.45;;;12.40;1.00;;;;;;5115285;28;20252;-60
2022/03/09 11:00:08;;;;;;;9.38;7.35;;;12.50;1.00;;;;;;5115431;27;20202;-61
2022/03/09 11:02:39;;;;;;;9.38;7.45;;;12.70;1.00;;;;;;5106257;28;20180;-60
2022/03/09 11:05:12;;;;;;;9.15;7.15;;;12.90;1.00;;;;;;5115318;28;20184;-61
2022/03/09 11:07:39;;;;;;;9.15;7.10;;;13.00;1.00;;;;;;5115311;28;20617;-62
2022/03/09 11:10:06;;;;;;;12.70;7.10;;;13.00;1.00;;;;;;5114681;27;20540;-62
2022/03/09 11:12:32;;;;;;;8.52;7.05;;;13.20;1.00;;;;;;5114695;28;20260;-62
2022/03/09 11:14:58;;;;;;;8.50;7.03;;;13.40;1.00;;;;;;5114744;28;20744;-62
2022/03/09 11:17:24;;;;;;;7.45;6.68;;;13.10;1.00;;;;;;5114631;28;20174;-61
2022/03/09 11:19:50;;;;;;;8.10;6.78;;;13.10;1.00;;;;;;5114765;28;20204;-62
2022/03/09 11:22:16;;;;;;;8.52;6.78;;;13.40;1.00;;;;;;5113224;28;20176;-61
2022/03/09 11:24:42;;;;;;;9.07;6.95;;;13.50;1.00;;;;;;5113065;28;20279;-62
2022/03/09 11:27:10;;;;;;;8.93;6.72;;;13.70;1.00;;;;;;5114665;28;20215;-62
2022/03/09 11:29:39;;;;;;;10.73;7.07;;;13.80;1.00;;;;;;5114920;28;20177;-62
2022/03/09 11:32:14;;;;;;;8.45;6.57;;;14.10;1.00;;;;;;5114750;28;20184;-62
2022/03/09 11:34:44;;;;;;;6.90;6.15;;;14.30;1.00;;;;;;5114785;28;20195;-62
2022/03/09 11:37:14;;;;;;;8.30;6.53;;;14.50;1.00;;;;;;5114393;28;20175;-63
2022/03/09 11:39:43;;;;;;;9.63;6.82;;;14.50;1.00;;;;;;5114554;28;20622;-62
2022/03/09 11:42:21;;;;;;;8.15;6.43;;;14.60;1.00;;;;;;5114301;28;20165;-62
2022/03/09 11:45:29;;;;;;;9.52;7.15;;;14.70;1.00;;;;;;5114260;28;20212;-61
2022/03/09 11:48:14;;;;;;;8.85;6.43;;;14.50;1.00;;;;;;5114251;28;20181;-62
2022/03/09 11:50:46;;;;;;;8.55;6.78;;;14.60;1.00;;;;;;5114772;28;20552;-61
2022/03/09 11:53:13;;;;;;;8.40;6.35;;;14.80;1.00;;;;;;5112821;28;20172;-61
2022/03/09 11:55:39;;;;;;;8.43;6.65;;;15.20;1.00;;;;;;5114420;28;20526;-61
2022/03/09 11:58:13;;;;;;;8.35;7.18;;;15.40;1.00;;;;;;5113940;28;20176;-60
2022/03/09 12:00:58;;;;;;;7.65;6.30;;;15.50;1.00;;;;;;5113935;28;20207;-61
2022/03/09 12:03:38;;;;;;;9.73;6.63;;;15.50;1.00;;;;;;5114041;28;20184;-62
2022/03/09 12:06:04;;;;;;;8.63;6.35;;;15.20;1.00;;;;;;5114037;28;20192;-61
2022/03/09 12:08:45;;;;;;;9.30;6.68;;;15.10;1.00;;;;;;5114518;28;20180;-62
2022/03/09 12:11:11;;;;;;;10.43;7.20;;;15.30;1.00;;;;;;5114222;28;20157;-62
2022/03/09 12:13:47;;;;;;;9.13;6.65;;;15.60;1.00;;;;;;5113841;28;20183;-61
2022/03/09 12:16:15;;;;;;;8.82;7.25;;;15.90;1.00;;;;;;5113696;28;20192;-61
2022/03/09 12:18:52;;;;;;;7.90;6.72;;;16.10;1.00;;;;;;5114037;28;20255;-61
2022/03/09 12:21:40;;;;;;;9.02;6.75;;;16.10;1.00;;;;;;5114028;28;20211;-62
2022/03/09 12:24:06;;;;;;;11.45;6.32;;;16.20;1.00;;;;;;5106906;28;20187;-61
2022/03/09 12:26:49;;;;;;;8.50;6.68;;;16.40;1.00;;;;;;5113764;28;20544;-61
2022/03/09 12:29:18;;;;;;;10.43;6.65;;;16.50;1.00;;;;;;5113694;28;20152;-62
2022/03/09 12:31:44;;;;;;;9.73;6.55;;;16.80;1.00;;;;;;5113798;28;20210;-61
2022/03/09 12:34:10;;;;;;;7.85;6.50;;;16.70;1.00;;;;;;5113790;28;20705;-61
2022/03/09 12:36:38;;;;;;;9.50;6.35;;;17.30;1.00;;;;;;5114567;28;20181;-62
2022/03/09 12:39:05;;;;;;;9.75;7.35;;;17.40;1.00;;;;;;5113963;28;20172;-61
2022/03/09 12:41:41;;;;;;;11.38;6.45;;;17.70;1.00;;;;;;5113465;28;20283;-61
2022/03/09 12:44:15;;;;;;;7.40;6.22;;;17.70;1.00;;;;;;5113868;28;20153;-61